Time;durP1;ratioP1;P1;durP2;ratioP2;P2;SDS_P1;SDS_P2;PMS_P1;PMS_P2;Temp;Humidity;BMP_temperature;BMP_pressure;BME280_temperature;BME280_humidity;BME280_pressure;Samples;Min_cycle;Max_cycle;Signal;HPM_P1;HPM_P2
2022/12/31 00:00:49;;;;;;;1.10;1.10;;;11.60;99.90;;;;;;5072877;28;20036;-48
2022/12/31 00:03:35;;;;;;;1.17;1.15;;;11.50;99.90;;;;;;5071921;28;20028;-51
2022/12/31 00:06:31;;;;;;;1.40;1.30;;;11.60;99.90;;;;;;5071234;28;20016;-49
2022/12/31 00:09:17;;;;;;;1.00;1.00;;;11.50;99.90;;;;;;5071980;28;20056;-48
2022/12/31 00:12:03;;;;;;;1.20;1.10;;;11.60;99.90;;;;;;5072419;28;20032;-46
2022/12/31 00:14:49;;;;;;;1.10;1.10;;;11.70;99.90;;;;;;5072460;28;20036;-49
2022/12/31 00:17:35;;;;;;;1.00;1.00;;;11.60;99.90;;;;;;5072161;28;20021;-48
2022/12/31 00:20:21;;;;;;;1.30;1.20;;;11.70;99.90;;;;;;5072360;28;20028;-45
2022/12/31 00:23:08;;;;;;;1.02;1.02;;;11.70;99.90;;;;;;5076605;28;20032;-45
2022/12/31 00:25:54;;;;;;;1.05;0.95;;;11.70;99.90;;;;;;5075920;28;20484;-44
2022/12/31 00:28:40;;;;;;;1.13;1.10;;;11.70;99.90;;;;;;5076170;28;20563;-45
2022/12/31 00:31:35;;;;;;;1.60;1.50;;;11.80;99.90;;;;;;5075531;28;20546;-48
2022/12/31 00:34:21;;;;;;;1.50;1.40;;;11.70;99.90;;;;;;5074572;28;20063;-46
2022/12/31 00:37:07;;;;;;;1.65;1.50;;;11.80;99.90;;;;;;5075473;28;20066;-47
2022/12/31 00:39:53;;;;;;;1.33;1.23;;;11.90;99.90;;;;;;5074030;28;20024;-50
2022/12/31 00:42:39;;;;;;;1.17;1.13;;;11.90;99.90;;;;;;5075782;28;20492;-48
2022/12/31 00:45:25;;;;;;;1.33;1.23;;;11.80;99.90;;;;;;5073439;28;20040;-44
2022/12/31 00:48:11;;;;;;;1.60;1.10;;;11.90;99.90;;;;;;5075581;28;20484;-49
2022/12/31 00:50:57;;;;;;;1.35;1.25;;;11.80;99.90;;;;;;5075869;28;20492;-51
2022/12/31 00:53:44;;;;;;;1.40;1.30;;;11.80;99.90;;;;;;5075270;28;20060;-48
2022/12/31 00:56:31;;;;;;;1.20;1.15;;;11.90;99.90;;;;;;5073387;28;20056;-44
2022/12/31 00:59:17;;;;;;;1.20;1.15;;;11.90;99.90;;;;;;5075333;28;20121;-50
2022/12/31 01:02:03;;;;;;;1.08;1.08;;;12.00;99.90;;;;;;5075227;28;20024;-52
2022/12/31 01:04:49;;;;;;;1.02;1.02;;;11.90;99.90;;;;;;5075362;28;20385;-48
2022/12/31 01:07:37;;;;;;;2.03;1.30;;;11.90;99.90;;;;;;5074795;28;20082;-44
2022/12/31 01:13:28;;;;;;;1.60;1.50;;;11.90;99.90;;;;;;5074987;28;20162;-46
2022/12/31 01:16:14;;;;;;;1.65;1.55;;;11.80;99.90;;;;;;5074159;28;20513;-46
2022/12/31 01:19:04;;;;;;;1.35;1.25;;;11.90;99.90;;;;;;5074776;28;20177;-45
2022/12/31 01:21:50;;;;;;;1.75;1.33;;;11.90;99.90;;;;;;5074719;28;20052;-51
2022/12/31 01:24:36;;;;;;;1.60;1.50;;;12.00;99.90;;;;;;5074122;28;20020;-49
2022/12/31 01:27:22;;;;;;;1.23;1.17;;;12.00;99.90;;;;;;5074062;28;20024;-49
2022/12/31 01:30:08;;;;;;;1.05;1.05;;;12.10;99.90;;;;;;5074758;28;20097;-50
2022/12/31 01:32:54;;;;;;;1.50;1.40;;;12.10;99.90;;;;;;5072838;28;20021;-45
2022/12/31 01:35:40;;;;;;;1.15;1.15;;;12.10;99.90;;;;;;5073650;28;20028;-48
2022/12/31 01:38:26;;;;;;;1.52;1.42;;;12.10;99.90;;;;;;5073813;28;20063;-50
2022/12/31 01:41:15;;;;;;;1.40;1.30;;;12.10;99.90;;;;;;5073546;28;20028;-47
2022/12/31 01:44:10;;;;;;;1.52;1.42;;;12.20;99.90;;;;;;5074471;28;20021;-47
2022/12/31 01:47:01;;;;;;;1.50;1.40;;;12.20;99.90;;;;;;5074279;28;20024;-48
2022/12/31 01:49:55;;;;;;;1.55;1.38;;;12.20;99.90;;;;;;5073759;28;20029;-46
2022/12/31 01:52:45;;;;;;;1.38;1.30;;;12.20;99.90;;;;;;5073780;28;20033;-48
2022/12/31 01:55:48;;;;;;;1.60;1.50;;;12.20;99.90;;;;;;5073629;28;20029;-46
2022/12/31 01:58:39;;;;;;;1.08;1.08;;;12.20;99.90;;;;;;5073588;28;20484;-44
2022/12/31 02:01:29;;;;;;;1.52;1.42;;;12.20;99.90;;;;;;5074166;28;20434;-49
2022/12/31 02:04:15;;;;;;;1.60;1.50;;;12.30;99.90;;;;;;5073978;28;20017;-51
2022/12/31 02:07:07;;;;;;;1.60;1.33;;;12.30;99.90;;;;;;5073733;28;20484;-49
2022/12/31 02:09:52;;;;;;;1.20;1.20;;;12.30;99.90;;;;;;5073325;28;20093;-45
2022/12/31 02:12:39;;;;;;;1.27;1.27;;;12.30;99.90;;;;;;5072762;28;20017;-44
2022/12/31 02:15:53;;;;;;;1.27;1.27;;;12.30;99.90;;;;;;5073930;28;20021;-46
2022/12/31 02:18:55;;;;;;;1.13;1.10;;;12.30;99.90;;;;;;5072067;28;20127;-49
2022/12/31 02:22:08;;;;;;;1.38;1.33;;;12.20;99.90;;;;;;5073911;28;20032;-44
2022/12/31 02:25:09;;;;;;;1.35;1.30;;;12.30;99.90;;;;;;5072075;28;20024;-45
2022/12/31 02:28:22;;;;;;;3.97;1.58;;;12.30;99.90;;;;;;5073378;28;20063;-44
2022/12/31 02:31:14;;;;;;;1.10;1.10;;;12.30;99.90;;;;;;5073637;28;20027;-46
2022/12/31 02:34:10;;;;;;;1.55;1.45;;;12.40;99.90;;;;;;5072900;28;20062;-50
2022/12/31 02:36:59;;;;;;;1.27;1.17;;;12.30;99.90;;;;;;5073952;28;20024;-50
2022/12/31 02:39:45;;;;;;;1.63;1.52;;;12.40;99.90;;;;;;5072621;28;20024;-45
2022/12/31 02:42:31;;;;;;;1.90;1.38;;;12.40;99.90;;;;;;5073363;28;20492;-45
2022/12/31 02:45:23;;;;;;;1.38;1.27;;;12.50;99.90;;;;;;5072246;28;20520;-48
2022/12/31 02:48:25;;;;;;;1.60;1.50;;;12.40;99.90;;;;;;5072909;28;20124;-46
2022/12/31 02:51:29;;;;;;;1.60;1.50;;;12.40;99.90;;;;;;5073457;28;20388;-48
2022/12/31 02:54:21;;;;;;;1.55;1.45;;;12.30;99.90;;;;;;5071964;28;20017;-45
2022/12/31 02:57:13;;;;;;;1.38;1.30;;;12.30;99.90;;;;;;5071607;28;20400;-44
2022/12/31 03:03:24;;;;;;;1.60;1.50;;;12.30;99.90;;;;;;5072973;28;20488;-49
2022/12/31 03:06:12;;;;;;;1.40;1.30;;;12.40;99.90;;;;;;5072622;28;20036;-52
2022/12/31 03:09:13;;;;;;;1.20;1.20;;;12.30;99.90;;;;;;5072300;28;20038;-46
2022/12/31 03:15:18;;;;;;;4.18;2.90;;;12.40;99.90;;;;;;5072621;28;20031;-50
2022/12/31 03:18:13;;;;;;;2.97;2.15;;;12.50;99.90;;;;;;5072281;28;20111;-45
2022/12/31 03:27:09;;;;;;;1.60;1.50;;;12.50;99.90;;;;;;5072396;28;20024;-48
2022/12/31 03:29:54;;;;;;;1.65;1.55;;;12.50;99.90;;;;;;5072458;28;20462;-48
2022/12/31 03:32:41;;;;;;;1.50;1.40;;;12.50;99.90;;;;;;5072538;28;20028;-49
2022/12/31 03:35:28;;;;;;;1.40;1.30;;;12.60;99.90;;;;;;5072609;28;20024;-52
2022/12/31 03:38:15;;;;;;;1.30;1.30;;;12.60;99.90;;;;;;5073081;28;20024;-48
2022/12/31 03:41:01;;;;;;;1.52;1.42;;;12.70;99.90;;;;;;5077731;28;20069;-51
2022/12/31 03:43:47;;;;;;;1.40;1.38;;;12.60;99.90;;;;;;5078794;28;20032;-53
2022/12/31 03:46:33;;;;;;;1.42;1.33;;;12.60;99.90;;;;;;5079107;28;20036;-45
2022/12/31 03:49:19;;;;;;;1.50;1.40;;;12.70;99.90;;;;;;5078008;28;20100;-46
2022/12/31 03:52:05;;;;;;;1.67;1.58;;;12.80;99.90;;;;;;5079905;28;20036;-46
2022/12/31 03:54:51;;;;;;;1.40;1.30;;;12.70;99.90;;;;;;5074182;28;20052;-47
2022/12/31 03:57:38;;;;;;;1.42;1.33;;;12.90;99.90;;;;;;5071867;28;20161;-45
2022/12/31 04:00:24;;;;;;;1.38;1.27;;;13.00;99.90;;;;;;5072115;28;20502;-46
2022/12/31 04:03:10;;;;;;;1.50;1.40;;;13.10;99.90;;;;;;5071544;28;20036;-46
2022/12/31 04:05:56;;;;;;;1.30;1.20;;;13.00;99.90;;;;;;5072032;28;20518;-44
2022/12/31 04:08:41;;;;;;;1.58;1.48;;;13.10;99.90;;;;;;5071504;28;20036;-48
2022/12/31 04:11:27;;;;;;;1.60;1.50;;;13.20;99.90;;;;;;5069280;28;20024;-48
2022/12/31 04:14:15;;;;;;;2.67;1.30;;;13.20;99.90;;;;;;5071387;28;20035;-45
2022/12/31 04:17:01;;;;;;;1.55;1.45;;;13.20;99.90;;;;;;5071050;28;20106;-44
2022/12/31 04:19:47;;;;;;;1.00;1.00;;;13.30;99.90;;;;;;5071769;28;20408;-45
2022/12/31 04:22:33;;;;;;;1.50;1.40;;;13.40;99.90;;;;;;5070308;28;20071;-49
2022/12/31 04:25:19;;;;;;;1.45;1.35;;;13.40;99.90;;;;;;5070932;28;20099;-46
2022/12/31 04:28:05;;;;;;;2.38;1.50;;;13.40;99.90;;;;;;5070453;28;20044;-46
2022/12/31 04:30:51;;;;;;;1.58;1.48;;;13.40;99.90;;;;;;5071381;28;20403;-49
2022/12/31 04:33:37;;;;;;;1.60;1.50;;;13.40;99.90;;;;;;5072119;28;20085;-46
2022/12/31 04:36:23;;;;;;;1.60;1.50;;;13.50;99.90;;;;;;5071687;28;20488;-49
2022/12/31 04:39:09;;;;;;;2.25;1.30;;;13.50;99.90;;;;;;5071530;28;20108;-50
2022/12/31 04:41:55;;;;;;;2.03;1.83;;;13.50;99.90;;;;;;5070569;28;20024;-53
2022/12/31 04:44:41;;;;;;;1.50;1.40;;;13.50;99.90;;;;;;5071648;28;20561;-45
2022/12/31 04:47:27;;;;;;;1.80;1.65;;;13.50;99.90;;;;;;5070313;28;20510;-44
2022/12/31 04:50:13;;;;;;;1.40;1.30;;;13.50;99.90;;;;;;5071550;28;20052;-47
2022/12/31 04:52:59;;;;;;;1.67;1.58;;;13.60;99.90;;;;;;5071692;28;20029;-44
2022/12/31 04:55:44;;;;;;;1.45;1.35;;;13.70;99.90;;;;;;5071601;28;20106;-45
2022/12/31 04:58:31;;;;;;;1.35;1.30;;;13.70;99.90;;;;;;5071384;28;20128;-47
2022/12/31 05:01:17;;;;;;;2.42;1.48;;;13.70;99.90;;;;;;5071497;28;20070;-45
2022/12/31 05:04:03;;;;;;;1.38;1.27;;;13.80;99.90;;;;;;5070739;28;20025;-44
2022/12/31 05:06:49;;;;;;;3.22;2.30;;;13.80;99.90;;;;;;5070636;28;20051;-45
2022/12/31 05:09:35;;;;;;;1.40;1.30;;;13.90;99.90;;;;;;5074156;28;20029;-44
2022/12/31 05:12:21;;;;;;;1.10;1.10;;;13.90;99.90;;;;;;5074935;28;20035;-44
2022/12/31 05:15:07;;;;;;;1.20;1.10;;;13.90;99.90;;;;;;5074914;28;20113;-45
2022/12/31 05:17:53;;;;;;;2.17;1.45;;;14.00;99.90;;;;;;5074840;28;20468;-45
2022/12/31 05:20:39;;;;;;;0.80;0.80;;;14.10;99.90;;;;;;5074883;28;20521;-45
2022/12/31 05:23:25;;;;;;;1.17;1.08;;;14.10;99.90;;;;;;5074750;28;20450;-46
2022/12/31 05:26:11;;;;;;;1.05;1.05;;;14.10;99.90;;;;;;5074041;28;20078;-44
2022/12/31 05:28:59;;;;;;;1.33;1.27;;;14.10;99.90;;;;;;5073636;28;20445;-48
2022/12/31 05:31:45;;;;;;;2.58;1.48;;;14.10;99.90;;;;;;5074207;28;20082;-51
2022/12/31 05:34:30;;;;;;;1.30;1.25;;;14.20;99.90;;;;;;5074647;28;20035;-53
2022/12/31 05:37:16;;;;;;;2.85;2.15;;;14.20;99.90;;;;;;5072199;28;20035;-47
2022/12/31 05:40:03;;;;;;;1.30;1.20;;;14.20;99.90;;;;;;5074011;28;20037;-50
2022/12/31 05:42:49;;;;;;;1.50;1.40;;;14.20;99.90;;;;;;5075002;28;20538;-49
2022/12/31 05:45:35;;;;;;;1.40;1.30;;;14.30;99.90;;;;;;5074720;28;20029;-50
2022/12/31 05:48:21;;;;;;;1.25;1.17;;;14.30;99.90;;;;;;5074140;28;20028;-46
2022/12/31 05:51:07;;;;;;;2.08;1.20;;;14.40;99.90;;;;;;5073900;28;20095;-51
2022/12/31 05:53:53;;;;;;;1.17;1.05;;;14.40;99.90;;;;;;5073747;28;20040;-54
2022/12/31 05:56:39;;;;;;;2.88;2.55;;;14.50;99.90;;;;;;5073134;28;20048;-52
2022/12/31 05:59:25;;;;;;;1.17;1.17;;;14.60;99.90;;;;;;5073257;28;20029;-47
2022/12/31 06:02:11;;;;;;;2.60;1.40;;;14.60;99.90;;;;;;5072497;28;20085;-46
2022/12/31 06:04:57;;;;;;;1.88;1.60;;;14.50;99.90;;;;;;5073631;28;20050;-46
2022/12/31 06:07:43;;;;;;;2.20;1.27;;;14.60;99.90;;;;;;5073947;28;20033;-46
2022/12/31 06:10:29;;;;;;;2.35;1.30;;;14.70;99.90;;;;;;5073602;28;20496;-45
2022/12/31 06:13:15;;;;;;;1.40;1.30;;;14.70;99.90;;;;;;5074052;28;20071;-46
2022/12/31 06:16:08;;;;;;;1.35;1.25;;;14.70;99.90;;;;;;5073812;28;20033;-48
2022/12/31 06:18:54;;;;;;;2.25;1.50;;;14.70;99.90;;;;;;5074147;28;20072;-48
2022/12/31 06:21:40;;;;;;;1.50;1.40;;;14.80;99.90;;;;;;5074339;28;20036;-53
2022/12/31 06:24:26;;;;;;;1.35;1.25;;;14.80;99.90;;;;;;5073957;28;20044;-52
2022/12/31 06:27:12;;;;;;;1.45;1.35;;;14.80;99.90;;;;;;5073263;28;20068;-52
2022/12/31 06:29:58;;;;;;;1.48;1.38;;;14.80;99.90;;;;;;5073696;28;20048;-47
2022/12/31 06:32:44;;;;;;;1.70;1.60;;;14.80;99.90;;;;;;5073219;28;20039;-45
2022/12/31 06:35:30;;;;;;;2.63;1.60;;;14.80;99.90;;;;;;5073358;28;20504;-45
2022/12/31 06:38:16;;;;;;;1.60;1.50;;;14.80;99.90;;;;;;5070974;28;20484;-46
2022/12/31 06:41:11;;;;;;;1.70;1.60;;;14.80;99.90;;;;;;5071730;28;20500;-44
2022/12/31 06:43:57;;;;;;;1.67;1.58;;;14.80;99.90;;;;;;5072727;28;20510;-49
2022/12/31 06:46:43;;;;;;;1.50;1.40;;;14.80;99.90;;;;;;5071282;28;20029;-51
2022/12/31 06:49:28;;;;;;;2.03;1.58;;;14.80;99.90;;;;;;5073078;28;20024;-50
2022/12/31 06:52:14;;;;;;;1.70;1.60;;;14.80;99.90;;;;;;5072401;28;20503;-47
2022/12/31 06:55:01;;;;;;;1.77;1.67;;;14.70;99.90;;;;;;5071309;28;20039;-45
2022/12/31 06:57:47;;;;;;;1.60;1.50;;;14.70;99.90;;;;;;5072145;28;20031;-45
2022/12/31 07:00:33;;;;;;;1.52;1.42;;;14.80;99.90;;;;;;5072313;28;20036;-51
2022/12/31 07:03:38;;;;;;;2.15;1.65;;;14.90;99.90;;;;;;5072758;28;20031;-54
2022/12/31 07:06:31;;;;;;;1.50;1.40;;;14.90;99.90;;;;;;5071981;28;20016;-48
2022/12/31 07:09:37;;;;;;;1.98;1.83;;;14.80;99.90;;;;;;5072681;28;20035;-50
2022/12/31 07:12:35;;;;;;;;;;;14.90;99.90;;;;;;5071035;28;20021;-49
2022/12/31 07:15:42;;;;;;;2.50;1.92;;;15.00;99.90;;;;;;5072777;28;20432;-45
2022/12/31 07:18:40;;;;;;;1.60;1.50;;;15.00;99.90;;;;;;5072386;28;20028;-46
2022/12/31 07:21:35;;;;;;;2.22;1.60;;;15.00;99.90;;;;;;5072081;28;20078;-47
2022/12/31 07:24:22;;;;;;;2.40;1.63;;;15.10;99.90;;;;;;5071349;28;20029;-45
2022/12/31 07:27:11;;;;;;;1.80;1.60;;;15.20;99.90;;;;;;5072291;28;20025;-46
2022/12/31 07:30:02;;;;;;;2.90;1.63;;;15.20;99.90;;;;;;5070643;28;20108;-48
2022/12/31 07:33:14;;;;;;;2.28;1.58;;;15.10;99.90;;;;;;5071524;28;20029;-46
2022/12/31 07:36:06;;;;;;;2.72;2.10;;;15.20;99.90;;;;;;5072367;28;20093;-52
2022/12/31 07:39:20;;;;;;;3.08;1.90;;;15.20;99.90;;;;;;5072221;28;20025;-52
2022/12/31 07:42:15;;;;;;;1.70;1.60;;;15.30;99.90;;;;;;5072221;28;20021;-51
2022/12/31 07:45:32;;;;;;;1.77;1.60;;;15.30;99.90;;;;;;5072139;28;20492;-48
2022/12/31 07:48:23;;;;;;;3.10;1.90;;;15.30;99.90;;;;;;5072015;28;20103;-45
2022/12/31 07:51:10;;;;;;;2.75;2.03;;;15.30;99.90;;;;;;5071901;28;20036;-44
2022/12/31 07:53:56;;;;;;;2.35;1.70;;;15.40;99.90;;;;;;5072278;28;20035;-44
2022/12/31 07:56:43;;;;;;;1.80;1.70;;;15.50;99.90;;;;;;5070820;28;20081;-44
2022/12/31 07:59:49;;;;;;;4.32;1.63;;;15.60;99.90;;;;;;5072466;28;20063;-45
2022/12/31 08:02:58;;;;;;;1.85;1.75;;;15.60;99.90;;;;;;5072412;28;20021;-47
2022/12/31 08:06:09;;;;;;;2.40;1.90;;;15.60;99.90;;;;;;5072395;28;20021;-48
2022/12/31 08:09:15;;;;;;;1.98;1.77;;;15.70;99.90;;;;;;5072438;28;20024;-49
2022/12/31 08:12:01;;;;;;;2.85;1.73;;;15.80;99.90;;;;;;5071963;28;20060;-46
2022/12/31 08:14:47;;;;;;;1.92;1.73;;;15.80;99.90;;;;;;5071388;28;20035;-51
2022/12/31 08:17:33;;;;;;;2.45;1.92;;;15.80;99.90;;;;;;5071931;28;20028;-49
2022/12/31 08:20:19;;;;;;;2.08;1.83;;;15.90;99.90;;;;;;5069535;28;20021;-48
2022/12/31 08:23:20;;;;;;;2.63;1.90;;;15.90;99.90;;;;;;5071846;28;20028;-51
2022/12/31 08:26:12;;;;;;;1.75;1.65;;;16.00;99.90;;;;;;5070624;28;20052;-45
2022/12/31 08:29:11;;;;;;;2.05;1.80;;;16.00;99.90;;;;;;5071812;28;20036;-49
2022/12/31 08:32:24;;;;;;;2.88;1.80;;;16.00;99.90;;;;;;5071698;28;20496;-46
2022/12/31 08:35:22;;;;;;;2.38;1.95;;;16.10;99.90;;;;;;5071306;28;20036;-46
2022/12/31 08:38:14;;;;;;;3.95;2.03;;;16.10;99.90;;;;;;5071697;28;20052;-50
2022/12/31 08:41:06;;;;;;;3.42;2.17;;;16.20;99.90;;;;;;5072137;28;20083;-53
2022/12/31 08:44:24;;;;;;;2.20;2.00;;;16.20;99.90;;;;;;5074496;28;20029;-53
2022/12/31 08:47:16;;;;;;;2.28;2.08;;;16.30;99.90;;;;;;5075882;28;20017;-46
2022/12/31 08:50:02;;;;;;;1.95;1.75;;;16.40;99.90;;;;;;5075498;28;20055;-51
2022/12/31 08:52:49;;;;;;;3.28;2.05;;;16.40;99.90;;;;;;5075408;28;20035;-51
2022/12/31 08:55:35;;;;;;;3.92;2.20;;;16.50;99.90;;;;;;5074488;28;20116;-47
2022/12/31 08:58:29;;;;;;;2.88;1.90;;;16.50;99.90;;;;;;5075379;28;20028;-48
2022/12/31 09:01:20;;;;;;;2.20;1.80;;;16.50;99.90;;;;;;5075360;28;20400;-48
2022/12/31 09:04:45;;;;;;;2.28;2.00;;;16.60;99.90;;;;;;5075675;28;20029;-49
2022/12/31 09:07:37;;;;;;;2.80;1.90;;;16.70;99.90;;;;;;5075022;28;20029;-54
2022/12/31 09:10:31;;;;;;;2.50;1.90;;;16.70;99.90;;;;;;5074326;28;20027;-52
2022/12/31 09:13:31;;;;;;;2.78;1.90;;;16.70;99.90;;;;;;5073996;28;20031;-55
2022/12/31 09:16:29;;;;;;;3.22;2.10;;;16.70;99.90;;;;;;5074691;28;20656;-45
2022/12/31 09:19:14;;;;;;;2.60;1.92;;;16.70;99.90;;;;;;5075359;28;20464;-47
2022/12/31 09:22:01;;;;;;;2.90;1.90;;;16.80;99.90;;;;;;5073547;28;20033;-45
2022/12/31 09:24:47;;;;;;;2.03;1.83;;;16.80;99.90;;;;;;5075561;28;20044;-45
2022/12/31 09:27:55;;;;;;;2.47;1.90;;;16.80;99.90;;;;;;5076285;28;20025;-47
2022/12/31 09:31:00;;;;;;;2.03;1.80;;;16.90;99.90;;;;;;5076677;28;20059;-52
2022/12/31 09:33:54;;;;;;;3.90;2.10;;;16.90;99.90;;;;;;5075853;28;20486;-50
2022/12/31 09:36:47;;;;;;;2.77;1.80;;;17.00;99.90;;;;;;5075773;28;20150;-48
2022/12/31 09:39:41;;;;;;;2.70;2.20;;;17.00;99.90;;;;;;5074538;28;20059;-47
2022/12/31 09:42:46;;;;;;;2.33;2.00;;;17.00;99.90;;;;;;5073275;28;20394;-46
2022/12/31 09:45:41;;;;;;;3.10;2.30;;;17.00;99.90;;;;;;5075213;28;20420;-49
2022/12/31 09:49:01;;;;;;;2.05;1.90;;;17.00;99.90;;;;;;5072580;28;20495;-47
2022/12/31 09:52:20;;;;;;;2.28;2.05;;;17.00;99.90;;;;;;5079358;28;20028;-50
2022/12/31 09:55:19;;;;;;;4.05;2.00;;;17.10;99.90;;;;;;5079407;28;20417;-45
2022/12/31 09:58:17;;;;;;;2.78;2.00;;;17.20;99.90;;;;;;5077690;28;20089;-46
2022/12/31 10:01:12;;;;;;;7.15;2.30;;;17.30;99.90;;;;;;5077869;28;20043;-45
2022/12/31 10:03:57;;;;;;;3.10;1.70;;;17.30;99.90;;;;;;5073211;28;20021;-44
2022/12/31 10:07:21;;;;;;;2.92;1.90;;;17.40;99.90;;;;;;5074048;28;20399;-46
2022/12/31 10:10:38;;;;;;;3.35;2.00;;;17.40;99.90;;;;;;5072576;28;20076;-52
2022/12/31 10:13:46;;;;;;;2.28;1.88;;;17.50;99.90;;;;;;5073767;28;20054;-47
2022/12/31 10:16:50;;;;;;;2.85;2.00;;;17.50;99.90;;;;;;5073969;28;20538;-45
2022/12/31 10:19:51;;;;;;;3.28;2.20;;;17.50;99.90;;;;;;5073875;28;20459;-45
2022/12/31 10:23:01;;;;;;;2.38;2.00;;;17.50;99.90;;;;;;5073900;28;20408;-49
2022/12/31 10:26:16;;;;;;;5.32;2.10;;;17.50;99.90;;;;;;5073795;28;20103;-50
2022/12/31 10:29:22;;;;;;;3.28;2.00;;;17.50;99.90;;;;;;5072865;28;20071;-47
2022/12/31 10:32:44;;;;;;;2.90;2.10;;;17.50;99.90;;;;;;5071439;28;20089;-45
2022/12/31 10:36:04;;;;;;;3.55;1.92;;;17.50;99.90;;;;;;5073648;28;20029;-47
2022/12/31 10:39:02;;;;;;;4.35;2.05;;;17.50;99.90;;;;;;5073272;28;20032;-47
2022/12/31 10:42:18;;;;;;;2.35;2.10;;;17.60;99.90;;;;;;5073614;28;20020;-49
2022/12/31 10:45:46;;;;;;;12.27;2.67;;;17.60;99.90;;;;;;5071905;28;20053;-47
2022/12/31 10:49:04;;;;;;;2.40;1.90;;;17.70;99.90;;;;;;5053205;28;20024;-51
2022/12/31 10:52:10;;;;;;;8.57;2.10;;;17.70;99.90;;;;;;5073454;28;20048;-52
2022/12/31 10:55:26;;;;;;;2.05;1.77;;;17.70;99.90;;;;;;5073293;28;20500;-47
2022/12/31 10:58:12;;;;;;;;;;;17.80;99.90;;;;;;5057985;28;20023;-49
2022/12/31 11:01:21;;;;;;;5.05;2.03;;;17.80;99.90;;;;;;5073679;28;19920;-52
2022/12/31 11:04:26;;;;;;;2.67;1.90;;;17.80;99.90;;;;;;5072590;28;20436;-47
2022/12/31 11:07:31;;;;;;;3.28;1.90;;;17.80;99.90;;;;;;5074311;28;20495;-50
2022/12/31 11:10:45;;;;;;;3.38;2.00;;;17.80;99.90;;;;;;5072603;28;20438;-49
2022/12/31 11:13:48;;;;;;;3.25;2.33;;;17.80;99.90;;;;;;5072871;28;20463;-44
2022/12/31 11:16:53;;;;;;;2.28;1.80;;;17.80;99.90;;;;;;5071097;28;20074;-46
2022/12/31 11:20:16;;;;;;;5.10;2.00;;;17.80;99.90;;;;;;5073008;28;20508;-45
2022/12/31 11:23:08;;;;;;;2.00;1.65;;;17.80;99.90;;;;;;5070747;28;20385;-47
2022/12/31 11:26:13;;;;;;;3.78;2.38;;;17.80;99.90;;;;;;5072334;28;20458;-48
2022/12/31 11:29:08;;;;;;;3.45;2.00;;;17.80;99.90;;;;;;5072937;28;20123;-50
2022/12/31 11:32:14;;;;;;;3.70;2.22;;;17.90;99.90;;;;;;5072731;28;20028;-47
2022/12/31 11:35:37;;;;;;;2.83;1.85;;;17.80;99.90;;;;;;5072851;28;20522;-48
2022/12/31 11:38:31;;;;;;;2.40;1.63;;;17.80;99.90;;;;;;5072549;28;20056;-44
2022/12/31 11:41:51;;;;;;;3.80;1.85;;;17.80;99.90;;;;;;5072076;28;20051;-46
2022/12/31 11:44:55;;;;;;;2.30;1.90;;;17.80;99.90;;;;;;5072780;28;20039;-46
2022/12/31 11:47:54;;;;;;;3.50;2.13;;;17.90;99.90;;;;;;5072998;28;20493;-51
2022/12/31 11:50:58;;;;;;;3.17;2.28;;;18.00;99.90;;;;;;5071350;28;20021;-49
2022/12/31 11:54:20;;;;;;;3.47;2.20;;;18.00;99.90;;;;;;5070823;28;20028;-49
2022/12/31 11:57:35;;;;;;;2.38;2.17;;;18.00;99.90;;;;;;5073045;28;20039;-46
2022/12/31 12:00:23;;;;;;;6.22;2.55;;;18.10;99.90;;;;;;5072114;28;20066;-47
2022/12/31 12:03:11;;;;;;;2.92;2.25;;;18.10;99.90;;;;;;5072170;28;20154;-46
2022/12/31 12:05:57;;;;;;;2.50;2.10;;;18.10;99.90;;;;;;5072612;28;20021;-45
2022/12/31 12:08:44;;;;;;;4.88;2.08;;;18.10;99.90;;;;;;5071511;28;20115;-44
2022/12/31 12:11:36;;;;;;;6.68;2.30;;;18.10;99.90;;;;;;5071194;28;20025;-49
2022/12/31 12:14:43;;;;;;;3.15;2.08;;;18.00;99.90;;;;;;5071387;28;20021;-45
2022/12/31 12:17:32;;;;;;;2.38;1.83;;;18.10;99.90;;;;;;5073287;28;20534;-43
2022/12/31 12:20:26;;;;;;;4.57;2.30;;;18.00;99.90;;;;;;5074794;28;20033;-47
2022/12/31 12:23:16;;;;;;;3.10;2.22;;;18.00;99.90;;;;;;5076056;28;20020;-49
2022/12/31 12:26:02;;;;;;;3.30;1.90;;;18.10;99.90;;;;;;5075406;28;20106;-45
2022/12/31 12:28:48;;;;;;;3.08;1.95;;;18.20;99.90;;;;;;5076139;28;20028;-46
2022/12/31 12:31:34;;;;;;;4.50;2.33;;;18.20;99.90;;;;;;5074002;28;20029;-47
2022/12/31 12:34:25;;;;;;;2.28;1.80;;;18.30;99.90;;;;;;5075320;28;20081;-51
2022/12/31 12:37:31;;;;;;;5.57;2.17;;;18.40;99.90;;;;;;5075968;28;20448;-49
2022/12/31 12:40:22;;;;;;;3.40;2.15;;;18.40;99.90;;;;;;5076080;28;20028;-47
2022/12/31 12:43:27;;;;;;;6.78;1.90;;;18.40;99.90;;;;;;5075556;28;20031;-46
2022/12/31 12:46:32;;;;;;;3.38;2.10;;;18.30;99.90;;;;;;5075601;28;20020;-51
2022/12/31 12:49:27;;;;;;;2.65;2.08;;;18.20;99.90;;;;;;5075551;28;20024;-47
2022/12/31 12:52:58;;;;;;;2.88;2.00;;;18.20;99.90;;;;;;5074794;28;20030;-55
2022/12/31 12:56:10;;;;;;;3.17;2.22;;;18.20;99.90;;;;;;5075047;28;20117;-51
2022/12/31 12:59:19;;;;;;;2.75;2.15;;;18.20;99.90;;;;;;5075082;28;20025;-47
2022/12/31 13:02:11;;;;;;;4.35;2.13;;;18.20;99.90;;;;;;5075870;28;20025;-50
2022/12/31 13:04:57;;;;;;;6.25;2.35;;;18.10;99.90;;;;;;5073846;28;20040;-51
2022/12/31 13:08:02;;;;;;;3.50;2.05;;;18.10;99.90;;;;;;5073820;28;20021;-44
2022/12/31 13:11:14;;;;;;;8.57;2.45;;;18.10;99.90;;;;;;5075822;28;20027;-44
2022/12/31 13:14:33;;;;;;;4.40;2.47;;;18.10;99.90;;;;;;5073832;28;20074;-47
2022/12/31 13:17:50;;;;;;;4.18;2.00;;;18.00;99.90;;;;;;5077969;28;20025;-45
2022/12/31 13:20:48;;;;;;;3.90;2.30;;;18.00;99.90;;;;;;5073133;28;20028;-49
2022/12/31 13:24:05;;;;;;;2.45;2.25;;;18.00;99.90;;;;;;5077083;28;20032;-49
2022/12/31 13:27:05;;;;;;;2.92;2.38;;;18.00;99.90;;;;;;5075027;28;20491;-46
2022/12/31 13:29:52;;;;;;;4.88;2.20;;;17.90;99.90;;;;;;5073983;28;20047;-48
2022/12/31 13:33:05;;;;;;;2.95;2.00;;;18.00;99.90;;;;;;5075149;28;20079;-48
2022/12/31 13:35:53;;;;;;;5.30;2.40;;;17.90;99.90;;;;;;5075620;28;20039;-47
2022/12/31 13:38:51;;;;;;;3.05;2.10;;;17.90;99.90;;;;;;5074795;28;20082;-46
2022/12/31 13:42:09;;;;;;;3.63;2.13;;;17.80;99.90;;;;;;5074107;28;20017;-49
2022/12/31 13:45:11;;;;;;;3.83;2.30;;;17.80;99.90;;;;;;5069549;28;20025;-46
2022/12/31 13:48:06;;;;;;;4.70;2.20;;;17.80;99.90;;;;;;5074603;28;20017;-50
2022/12/31 13:51:09;;;;;;;4.85;2.30;;;17.80;99.90;;;;;;5074919;28;20107;-47
2022/12/31 13:54:12;;;;;;;3.05;2.30;;;17.90;99.90;;;;;;5072901;28;20025;-48
2022/12/31 13:57:04;;;;;;;3.55;2.30;;;17.90;99.90;;;;;;5074708;28;20048;-46
2022/12/31 13:59:57;;;;;;;2.33;2.13;;;17.80;99.90;;;;;;5074401;28;20021;-45
2022/12/31 14:02:52;;;;;;;3.38;2.25;;;17.80;99.90;;;;;;5072751;28;20021;-52
2022/12/31 14:05:50;;;;;;;;;;;17.90;99.90;;;;;;5074972;28;20133;-49
2022/12/31 14:08:36;;;;;;;4.93;2.50;;;17.90;99.90;;;;;;5075282;28;19904;-45
2022/12/31 14:11:44;;;;;;;3.45;2.30;;;18.10;99.90;;;;;;5073286;28;20029;-47
2022/12/31 14:14:45;;;;;;;4.55;2.25;;;18.10;99.90;;;;;;5074350;28;20023;-47
2022/12/31 14:17:44;;;;;;;3.95;2.30;;;18.20;99.90;;;;;;5074666;28;20088;-52
2022/12/31 14:20:45;;;;;;;3.25;2.67;;;18.20;99.90;;;;;;5074423;28;20028;-45
2022/12/31 14:24:02;;;;;;;5.07;2.75;;;18.10;99.90;;;;;;5074757;28;20083;-49
2022/12/31 14:26:56;;;;;;;5.40;3.28;;;18.00;99.90;;;;;;5073157;28;20507;-46
2022/12/31 14:29:51;;;;;;;4.43;2.40;;;17.90;99.90;;;;;;5073002;28;20416;-51
2022/12/31 14:33:04;;;;;;;7.30;4.70;;;17.80;99.90;;;;;;5074043;28;20032;-47
2022/12/31 14:35:52;;;;;;;3.42;2.35;;;17.80;99.90;;;;;;5073948;28;20033;-47
2022/12/31 14:39:06;;;;;;;2.80;2.20;;;17.80;99.90;;;;;;5075979;28;20039;-54
2022/12/31 14:42:06;;;;;;;3.13;2.08;;;17.60;99.90;;;;;;5073887;28;20081;-48
2022/12/31 14:45:25;;;;;;;4.78;2.30;;;17.60;99.90;;;;;;5073829;28;20070;-50
2022/12/31 14:48:30;;;;;;;3.92;2.97;;;17.60;99.90;;;;;;5072504;28;20020;-48
2022/12/31 14:51:16;;;;;;;;;;;17.60;99.90;;;;;;5073355;28;20021;-54
2022/12/31 14:54:02;;;;;;;4.47;2.60;;;17.50;99.90;;;;;;5057880;28;20309;-45
2022/12/31 14:56:50;;;;;;;4.75;2.35;;;17.40;99.90;;;;;;5072024;28;20072;-45
2022/12/31 14:59:36;;;;;;;5.75;2.30;;;17.40;99.90;;;;;;5072470;28;20433;-47
2022/12/31 15:02:31;;;;;;;2.47;1.85;;;17.40;99.90;;;;;;5072450;28;20024;-45
2022/12/31 15:05:23;;;;;;;5.15;2.30;;;17.40;99.90;;;;;;5073134;28;20051;-49
2022/12/31 15:08:28;;;;;;;2.95;2.10;;;17.50;99.90;;;;;;5072854;28;20572;-49
2022/12/31 15:11:38;;;;;;;3.58;2.40;;;17.50;99.90;;;;;;5073385;28;20452;-48
2022/12/31 15:14:57;;;;;;;3.70;2.30;;;17.60;99.90;;;;;;5073843;28;20112;-46
2022/12/31 15:18:27;;;;;;;4.40;2.60;;;17.50;99.90;;;;;;5073365;28;20512;-55
2022/12/31 15:21:40;;;;;;;3.17;2.55;;;17.40;99.90;;;;;;5074545;28;20035;-51
2022/12/31 15:24:29;;;;;;;2.55;2.35;;;17.30;99.90;;;;;;5076754;28;20514;-49
2022/12/31 15:27:36;;;;;;;3.42;2.38;;;17.20;99.90;;;;;;5076296;28;20028;-46